Saginaw, MI (48608)

7:05 PM EDT on April 29, 2017 (GMT -0400)
MAS154 | | Change Station

Elev 610 ft 43.44 °N, 84.02 °W | Updated 38 minutes ago

Rain
Rain
51.0 °F
Feels Like 51.0 °F
N
0.0
Wind Variable Wind from NE

Today
High -- | Low -- °F
--% Chance of Precip.
Yesterday
High -- | Low -- °F
Precip. -- in
Pressure 30.24 in
Visibility 10.0 miles
Clouds Scattered Clouds 2700 ft
Mostly Cloudy 6000 ft
Overcast 8000 ft
Dew Point 34 °F
Humidity 53%
Rainfall 0.01 in
Snow Depth Not available.
6:31 AM 8:35 PM
Waxing Crescent, 17% visible
METAR KHYX 292256Z AUTO 08008KT 10SM -DZ SCT027 BKN060 OVC080 09/01 A3024 RMK AO2
Pressure 30.24 in
Visibility 10.0 miles
Clouds Scattered Clouds 2700 ft
Mostly Cloudy 6000 ft
Overcast 8000 ft
Dew Point 34 °F
Humidity 53%
Rainfall 0.01 in
Snow Depth Not available.
6:31 AM 8:35 PM
Waxing Crescent, 17% visible
METAR KHYX 292256Z AUTO 08008KT 10SM -DZ SCT027 BKN060 OVC080 09/01 A3024 RMK AO2

Get Severe Weather Alerts

Thanks for signing up!

Be on the lookout for a verification email in your inbox.

You'll start receiving the daily forecast at 8 AM.

×

10-Day Weather Forecast

Almanac

Astronomy

Apr. 29, 2017 Rise Set
Actual Time
Civil Twilight
Nautical Twilight
Astronomical Twilight
Moon
Length of Visible Light
Length of Day
Tomorrow will be .
, % of the Moon is Illuminated

Today's Extremes

State Highs State Lows

Community

WunderPhotos

WunderBlog® & News

Nearby

Air Quality

  Air Quality AQ Index Pollutant
Not available.

Snow Depth

Station Depth Elevation

Earthquake Activity

City Distance Mag. Time & Date
Minimum magnitude displayed is 2.5.

Coastal Water Temperatures

Place Temperature

Stations

Nearby Weather Stations

Station Location Temp. Windchill Dew Point Humidity Wind Precip. Elev Updated Type
                   

Watches & Warnings

There are currently no watches in effect.